This is the latest recevied weather packets stored in our database for station/object KU4DD. If no packets are shown the sender has not sent any weather packets the latest 10 day(s).
| Time | Temp. | Humidity | Pressure | Rain* | Wind** | Luminosity | Snow |
|---|---|---|---|---|---|---|---|
| 1788023090 | 28.33° C | 79% | 1022 hPa | 0 mm | - | 394 W/m² | - |
| 1788022153 | 27.78° C | 82% | 1022 hPa | 0 mm | - | 434 W/m² | - |
| 1788020909 | 27.22° C | 82% | 1022 hPa | 0 mm | - | 264 W/m² | - |
| 1788014721 | 26.11° C | 88% | 1021.3 hPa | 0 mm | - | 318 W/m² | - |
| 1788014093 | 25.56° C | 88% | 1021.3 hPa | 0 mm | - | 278 W/m² | - |
| 1788013774 | 25.56° C | 89% | 1021.3 hPa | 0 mm | - | 257 W/m² | - |
| 1788010985 | 24.44° C | 90% | 1021 hPa | 0 mm | - | 260 W/m² | - |
| 1788010355 | 24.44° C | 90% | 1021 hPa | 0 mm | - | 232 W/m² | - |
| 1788009413 | 23.89° C | 90% | 1021 hPa | 0 mm | - | 167 W/m² | - |
| 1788006941 | 22.78° C | 93% | 1021 hPa | 0 mm | - | 155 W/m² | - |
| 1788003541 | 21.67° C | 96% | 1020.7 hPa | 0 mm | - | 86 W/m² | - |
| 1788002609 | 21.67° C | 97% | 1020.7 hPa | 0 mm | - | 35 W/m² | - |
| 1788001375 | 21.67° C | 97% | 1020.3 hPa | 0 mm | - | 11 W/m² | - |
| 1788000445 | 21.67° C | 97% | 1020 hPa | 0 mm | - | 0 W/m² | - |
| 1787999821 | 21.67° C | 97% | 1020 hPa | 0 mm | - | 0 W/m² | - |
| 1787998584 | 21.67° C | 97% | 1020 hPa | 0 mm | - | 0 W/m² | - |
| 1787997651 | 21.67° C | 97% | 1019.6 hPa | 0 mm | - | 0 W/m² | - |
| 1787996107 | 21.67° C | 97% | 1019.3 hPa | 0 mm | - | 0 W/m² | - |
| 1787993953 | 21.67° C | 96% | 1019.3 hPa | 0 mm | - | 0 W/m² | - |
| 1787993633 | 21.67° C | 96% | 1019 hPa | 0 mm | - | 0 W/m² | - |
| 1787992684 | 21.67° C | 96% | 1019 hPa | 0 mm | - | 0 W/m² | - |
| 1787991462 | 21.67° C | 96% | 1019 hPa | 0 mm | - | 0 W/m² | - |
| 1787980051 | 22.22° C | 94% | 1018.3 hPa | 0 mm | - | 0 W/m² | - |
| 1787978803 | 22.22° C | 93% | 1017.9 hPa | 0 mm | - | 0 W/m² | - |
| 1787968639 | 22.78° C | 89% | 1017.6 hPa | 0 mm | - | 0 W/m² | - |
* Rain latest hour (hover to see other rain measurements)
** Current wind speed in m/s (hover to see current wind gust speed)